Авиационная погода в Варне

Регион: 
Погода METAR: 
LBWN 221800Z 32005KT CAVOK M04/M07 Q1016 NOSIG
Время наблюдения
2022-01-22T18:00:00Z
Температура C
-4.0
Точка росы
-7.0
Направление ветра
320
Скорость ветра (узлы)
5
Метео видимость
6.21
Облачность
CAVOK
Нижняя граница облачности (футы)
Явления погоды
Условия полета
VFR